sensor_id;sensor_type;location;lat;lon;timestamp;P1;durP1;ratioP1;P2;durP2;ratioP2
13439;SDS011;6792;57.698;11.946;2023-04-08T00:01:16;1.00;;;0.80;;
13439;SDS011;6792;57.698;11.946;2023-04-08T00:03:45;1.43;;;0.77;;
13439;SDS011;6792;57.698;11.946;2023-04-08T00:06:14;1.40;;;0.70;;
13439;SDS011;6792;57.698;11.946;2023-04-08T00:08:47;0.97;;;0.87;;
13439;SDS011;6792;57.698;11.946;2023-04-08T00:11:16;1.30;;;0.70;;
13439;SDS011;6792;57.698;11.946;2023-04-08T00:13:49;1.07;;;0.70;;
13439;SDS011;6792;57.698;11.946;2023-04-08T00:16:18;0.70;;;0.70;;
13439;SDS011;6792;57.698;11.946;2023-04-08T00:18:48;2.10;;;0.97;;
13439;SDS011;6792;57.698;11.946;2023-04-08T00:21:17;0.73;;;0.70;;
13439;SDS011;6792;57.698;11.946;2023-04-08T00:23:46;1.00;;;0.77;;
13439;SDS011;6792;57.698;11.946;2023-04-08T00:26:18;1.57;;;1.00;;
13439;SDS011;6792;57.698;11.946;2023-04-08T00:28:49;1.13;;;0.87;;
13439;SDS011;6792;57.698;11.946;2023-04-08T00:31:19;1.17;;;1.00;;
13439;SDS011;6792;57.698;11.946;2023-04-08T00:33:48;1.70;;;1.03;;
13439;SDS011;6792;57.698;11.946;2023-04-08T00:36:17;1.93;;;0.90;;
13439;SDS011;6792;57.698;11.946;2023-04-08T00:38:46;0.70;;;0.70;;
13439;SDS011;6792;57.698;11.946;2023-04-08T00:41:16;1.13;;;1.03;;
13439;SDS011;6792;57.698;11.946;2023-04-08T00:43:45;1.17;;;0.80;;
13439;SDS011;6792;57.698;11.946;2023-04-08T00:46:16;2.37;;;0.80;;
13439;SDS011;6792;57.698;11.946;2023-04-08T00:48:47;0.60;;;0.60;;
13439;SDS011;6792;57.698;11.946;2023-04-08T00:51:17;2.10;;;0.90;;
13439;SDS011;6792;57.698;11.946;2023-04-08T00:53:46;0.90;;;0.63;;
13439;SDS011;6792;57.698;11.946;2023-04-08T00:56:16;0.80;;;0.80;;
13439;SDS011;6792;57.698;11.946;2023-04-08T00:58:47;0.70;;;0.70;;
13439;SDS011;6792;57.698;11.946;2023-04-08T01:01:21;0.80;;;0.80;;
13439;SDS011;6792;57.698;11.946;2023-04-08T01:03:53;0.83;;;0.70;;
13439;SDS011;6792;57.698;11.946;2023-04-08T01:06:26;0.83;;;0.70;;
13439;SDS011;6792;57.698;11.946;2023-04-08T01:08:57;1.00;;;0.80;;
13439;SDS011;6792;57.698;11.946;2023-04-08T01:11:29;1.93;;;0.70;;
13439;SDS011;6792;57.698;11.946;2023-04-08T01:14:01;0.70;;;0.63;;
13439;SDS011;6792;57.698;11.946;2023-04-08T01:16:34;1.17;;;1.00;;
13439;SDS011;6792;57.698;11.946;2023-04-08T01:19:05;0.70;;;0.70;;
13439;SDS011;6792;57.698;11.946;2023-04-08T01:21:37;1.43;;;0.80;;
13439;SDS011;6792;57.698;11.946;2023-04-08T01:24:08;1.27;;;1.00;;
13439;SDS011;6792;57.698;11.946;2023-04-08T01:26:39;1.53;;;0.83;;
13439;SDS011;6792;57.698;11.946;2023-04-08T01:29:10;1.07;;;0.73;;
13439;SDS011;6792;57.698;11.946;2023-04-08T01:31:42;1.80;;;0.70;;
13439;SDS011;6792;57.698;11.946;2023-04-08T01:34:13;1.43;;;1.07;;
13439;SDS011;6792;57.698;11.946;2023-04-08T01:36:46;1.20;;;1.10;;
13439;SDS011;6792;57.698;11.946;2023-04-08T01:39:17;1.37;;;0.80;;
13439;SDS011;6792;57.698;11.946;2023-04-08T01:41:47;1.10;;;1.00;;
13439;SDS011;6792;57.698;11.946;2023-04-08T01:44:20;1.03;;;0.93;;
13439;SDS011;6792;57.698;11.946;2023-04-08T01:46:50;1.13;;;0.80;;
13439;SDS011;6792;57.698;11.946;2023-04-08T01:49:21;1.10;;;0.90;;
13439;SDS011;6792;57.698;11.946;2023-04-08T01:51:52;1.67;;;1.20;;
13439;SDS011;6792;57.698;11.946;2023-04-08T01:54:23;1.30;;;0.80;;
13439;SDS011;6792;57.698;11.946;2023-04-08T01:56:53;1.10;;;1.00;;
13439;SDS011;6792;57.698;11.946;2023-04-08T01:59:23;2.03;;;0.93;;
13439;SDS011;6792;57.698;11.946;2023-04-08T02:01:55;0.90;;;0.90;;
13439;SDS011;6792;57.698;11.946;2023-04-08T02:04:25;1.20;;;1.00;;
13439;SDS011;6792;57.698;11.946;2023-04-08T02:06:55;0.60;;;0.60;;
13439;SDS011;6792;57.698;11.946;2023-04-08T02:09:25;1.10;;;1.00;;
13439;SDS011;6792;57.698;11.946;2023-04-08T02:11:54;2.70;;;1.00;;
13439;SDS011;6792;57.698;11.946;2023-04-08T02:14:23;0.80;;;0.80;;
13439;SDS011;6792;57.698;11.946;2023-04-08T02:16:53;2.20;;;1.10;;
13439;SDS011;6792;57.698;11.946;2023-04-08T02:19:24;0.97;;;0.90;;
13439;SDS011;6792;57.698;11.946;2023-04-08T02:21:58;2.37;;;1.00;;
13439;SDS011;6792;57.698;11.946;2023-04-08T02:24:29;1.47;;;1.00;;
13439;SDS011;6792;57.698;11.946;2023-04-08T02:27:00;1.40;;;0.90;;
13439;SDS011;6792;57.698;11.946;2023-04-08T02:29:30;3.13;;;1.17;;
13439;SDS011;6792;57.698;11.946;2023-04-08T02:32:01;1.77;;;1.03;;
13439;SDS011;6792;57.698;11.946;2023-04-08T02:34:32;0.70;;;0.70;;
13439;SDS011;6792;57.698;11.946;2023-04-08T02:37:04;1.60;;;1.07;;
13439;SDS011;6792;57.698;11.946;2023-04-08T02:39:34;1.00;;;0.90;;
13439;SDS011;6792;57.698;11.946;2023-04-08T02:42:03;0.70;;;0.70;;
13439;SDS011;6792;57.698;11.946;2023-04-08T02:44:32;4.07;;;0.87;;
13439;SDS011;6792;57.698;11.946;2023-04-08T02:47:03;0.93;;;0.87;;
13439;SDS011;6792;57.698;11.946;2023-04-08T02:49:32;1.07;;;0.83;;
13439;SDS011;6792;57.698;11.946;2023-04-08T02:52:01;1.00;;;0.90;;
13439;SDS011;6792;57.698;11.946;2023-04-08T02:54:31;3.00;;;0.90;;
13439;SDS011;6792;57.698;11.946;2023-04-08T02:57:01;1.47;;;0.80;;
13439;SDS011;6792;57.698;11.946;2023-04-08T02:59:30;1.73;;;1.00;;
13439;SDS011;6792;57.698;11.946;2023-04-08T03:02:01;0.80;;;0.80;;
13439;SDS011;6792;57.698;11.946;2023-04-08T03:04:31;2.23;;;1.10;;
13439;SDS011;6792;57.698;11.946;2023-04-08T03:07:00;3.63;;;0.97;;
13439;SDS011;6792;57.698;11.946;2023-04-08T03:09:29;2.60;;;0.80;;
13439;SDS011;6792;57.698;11.946;2023-04-08T03:11:58;1.10;;;1.00;;
13439;SDS011;6792;57.698;11.946;2023-04-08T03:14:28;1.10;;;1.00;;
13439;SDS011;6792;57.698;11.946;2023-04-08T03:16:57;0.93;;;0.83;;
13439;SDS011;6792;57.698;11.946;2023-04-08T03:19:26;1.47;;;1.20;;
13439;SDS011;6792;57.698;11.946;2023-04-08T03:21:55;3.03;;;1.30;;
13439;SDS011;6792;57.698;11.946;2023-04-08T03:24:25;0.97;;;0.83;;
13439;SDS011;6792;57.698;11.946;2023-04-08T03:26:54;1.30;;;1.10;;
13439;SDS011;6792;57.698;11.946;2023-04-08T03:29:26;2.37;;;1.10;;
13439;SDS011;6792;57.698;11.946;2023-04-08T03:31:55;1.07;;;0.80;;
13439;SDS011;6792;57.698;11.946;2023-04-08T03:34:24;1.17;;;1.00;;
13439;SDS011;6792;57.698;11.946;2023-04-08T03:36:54;1.50;;;1.20;;
13439;SDS011;6792;57.698;11.946;2023-04-08T03:39:23;1.33;;;1.20;;
13439;SDS011;6792;57.698;11.946;2023-04-08T03:41:52;1.30;;;1.17;;
13439;SDS011;6792;57.698;11.946;2023-04-08T03:44:21;1.43;;;1.23;;
13439;SDS011;6792;57.698;11.946;2023-04-08T03:46:50;2.30;;;1.07;;
13439;SDS011;6792;57.698;11.946;2023-04-08T03:49:20;1.83;;;0.90;;
13439;SDS011;6792;57.698;11.946;2023-04-08T03:51:49;1.37;;;0.90;;
13439;SDS011;6792;57.698;11.946;2023-04-08T03:54:18;2.40;;;1.13;;
13439;SDS011;6792;57.698;11.946;2023-04-08T03:56:48;1.63;;;1.50;;
13439;SDS011;6792;57.698;11.946;2023-04-08T03:59:17;1.77;;;1.20;;
13439;SDS011;6792;57.698;11.946;2023-04-08T04:01:46;1.03;;;0.93;;
13439;SDS011;6792;57.698;11.946;2023-04-08T04:04:16;2.03;;;1.47;;
13439;SDS011;6792;57.698;11.946;2023-04-08T04:06:46;1.67;;;1.10;;
13439;SDS011;6792;57.698;11.946;2023-04-08T04:09:16;1.33;;;1.20;;
13439;SDS011;6792;57.698;11.946;2023-04-08T04:11:46;2.03;;;1.10;;
13439;SDS011;6792;57.698;11.946;2023-04-08T04:14:15;1.27;;;1.07;;
13439;SDS011;6792;57.698;11.946;2023-04-08T04:16:44;1.13;;;1.00;;
13439;SDS011;6792;57.698;11.946;2023-04-08T04:19:14;1.00;;;1.00;;
13439;SDS011;6792;57.698;11.946;2023-04-08T04:21:43;0.90;;;0.83;;
13439;SDS011;6792;57.698;11.946;2023-04-08T04:24:14;1.23;;;1.13;;
13439;SDS011;6792;57.698;11.946;2023-04-08T04:26:45;2.90;;;1.10;;
13439;SDS011;6792;57.698;11.946;2023-04-08T04:29:14;1.70;;;1.50;;
13439;SDS011;6792;57.698;11.946;2023-04-08T04:31:44;1.27;;;1.07;;
13439;SDS011;6792;57.698;11.946;2023-04-08T04:34:16;2.73;;;1.33;;
13439;SDS011;6792;57.698;11.946;2023-04-08T04:36:48;2.50;;;1.20;;
13439;SDS011;6792;57.698;11.946;2023-04-08T04:39:17;1.93;;;1.23;;
13439;SDS011;6792;57.698;11.946;2023-04-08T04:41:47;1.27;;;1.17;;
13439;SDS011;6792;57.698;11.946;2023-04-08T04:44:16;1.30;;;1.20;;
13439;SDS011;6792;57.698;11.946;2023-04-08T04:46:47;2.83;;;1.40;;
13439;SDS011;6792;57.698;11.946;2023-04-08T04:49:17;1.10;;;1.00;;
13439;SDS011;6792;57.698;11.946;2023-04-08T04:51:46;1.23;;;1.10;;
13439;SDS011;6792;57.698;11.946;2023-04-08T04:54:18;1.30;;;1.20;;
13439;SDS011;6792;57.698;11.946;2023-04-08T04:56:47;1.20;;;1.10;;
13439;SDS011;6792;57.698;11.946;2023-04-08T04:59:16;2.10;;;1.10;;
13439;SDS011;6792;57.698;11.946;2023-04-08T05:01:46;1.60;;;1.23;;
13439;SDS011;6792;57.698;11.946;2023-04-08T05:04:17;2.20;;;1.30;;
13439;SDS011;6792;57.698;11.946;2023-04-08T05:06:47;2.23;;;1.30;;
13439;SDS011;6792;57.698;11.946;2023-04-08T05:09:16;1.97;;;1.33;;
13439;SDS011;6792;57.698;11.946;2023-04-08T05:11:45;1.83;;;1.40;;
13439;SDS011;6792;57.698;11.946;2023-04-08T05:14:14;1.70;;;1.40;;
13439;SDS011;6792;57.698;11.946;2023-04-08T05:16:44;1.63;;;1.20;;
13439;SDS011;6792;57.698;11.946;2023-04-08T05:19:15;1.57;;;1.40;;
13439;SDS011;6792;57.698;11.946;2023-04-08T05:21:44;2.23;;;1.40;;
13439;SDS011;6792;57.698;11.946;2023-04-08T05:24:17;1.60;;;1.30;;
13439;SDS011;6792;57.698;11.946;2023-04-08T05:26:46;1.87;;;1.57;;
13439;SDS011;6792;57.698;11.946;2023-04-08T05:29:17;3.33;;;1.40;;
13439;SDS011;6792;57.698;11.946;2023-04-08T05:31:47;2.27;;;1.60;;
13439;SDS011;6792;57.698;11.946;2023-04-08T05:34:16;3.23;;;1.30;;
13439;SDS011;6792;57.698;11.946;2023-04-08T05:36:48;2.50;;;1.30;;
13439;SDS011;6792;57.698;11.946;2023-04-08T05:39:18;1.73;;;1.23;;
13439;SDS011;6792;57.698;11.946;2023-04-08T05:41:47;3.20;;;1.60;;
13439;SDS011;6792;57.698;11.946;2023-04-08T05:44:16;2.27;;;1.97;;
13439;SDS011;6792;57.698;11.946;2023-04-08T05:46:46;1.73;;;1.60;;
13439;SDS011;6792;57.698;11.946;2023-04-08T05:49:15;2.23;;;1.60;;
13439;SDS011;6792;57.698;11.946;2023-04-08T05:51:44;2.90;;;1.73;;
13439;SDS011;6792;57.698;11.946;2023-04-08T05:54:13;2.20;;;1.47;;
13439;SDS011;6792;57.698;11.946;2023-04-08T05:56:44;1.60;;;1.30;;
13439;SDS011;6792;57.698;11.946;2023-04-08T05:59:17;4.10;;;1.60;;
13439;SDS011;6792;57.698;11.946;2023-04-08T06:01:46;2.10;;;1.60;;
13439;SDS011;6792;57.698;11.946;2023-04-08T06:04:18;2.47;;;1.70;;
13439;SDS011;6792;57.698;11.946;2023-04-08T06:06:48;2.67;;;1.80;;
13439;SDS011;6792;57.698;11.946;2023-04-08T06:09:17;3.57;;;1.60;;
13439;SDS011;6792;57.698;11.946;2023-04-08T06:11:46;1.90;;;1.63;;
13439;SDS011;6792;57.698;11.946;2023-04-08T06:14:18;2.37;;;1.37;;
13439;SDS011;6792;57.698;11.946;2023-04-08T06:16:48;2.43;;;1.90;;
13439;SDS011;6792;57.698;11.946;2023-04-08T06:19:18;2.40;;;1.60;;
13439;SDS011;6792;57.698;11.946;2023-04-08T06:21:47;5.80;;;1.90;;
13439;SDS011;6792;57.698;11.946;2023-04-08T06:24:17;3.37;;;1.80;;
13439;SDS011;6792;57.698;11.946;2023-04-08T06:26:46;1.90;;;1.63;;
13439;SDS011;6792;57.698;11.946;2023-04-08T06:29:19;1.50;;;1.30;;
13439;SDS011;6792;57.698;11.946;2023-04-08T06:31:48;2.50;;;1.83;;
13439;SDS011;6792;57.698;11.946;2023-04-08T06:34:23;5.30;;;1.60;;
13439;SDS011;6792;57.698;11.946;2023-04-08T06:36:53;2.17;;;1.80;;
13439;SDS011;6792;57.698;11.946;2023-04-08T06:39:22;2.97;;;1.90;;
13439;SDS011;6792;57.698;11.946;2023-04-08T06:41:52;1.90;;;1.60;;
13439;SDS011;6792;57.698;11.946;2023-04-08T06:44:21;3.33;;;1.37;;
13439;SDS011;6792;57.698;11.946;2023-04-08T06:46:56;1.67;;;1.20;;
13439;SDS011;6792;57.698;11.946;2023-04-08T06:49:25;3.87;;;1.57;;
13439;SDS011;6792;57.698;11.946;2023-04-08T06:51:55;4.97;;;1.60;;
13439;SDS011;6792;57.698;11.946;2023-04-08T06:54:24;3.57;;;1.40;;
13439;SDS011;6792;57.698;11.946;2023-04-08T06:56:54;8.93;;;1.77;;
13439;SDS011;6792;57.698;11.946;2023-04-08T06:59:23;2.70;;;1.50;;
13439;SDS011;6792;57.698;11.946;2023-04-08T07:01:52;3.00;;;1.80;;
13439;SDS011;6792;57.698;11.946;2023-04-08T07:04:22;2.90;;;1.40;;
13439;SDS011;6792;57.698;11.946;2023-04-08T07:06:51;1.80;;;1.10;;
13439;SDS011;6792;57.698;11.946;2023-04-08T07:09:20;3.23;;;1.60;;
13439;SDS011;6792;57.698;11.946;2023-04-08T07:11:49;3.13;;;1.43;;
13439;SDS011;6792;57.698;11.946;2023-04-08T07:14:18;2.87;;;1.60;;
13439;SDS011;6792;57.698;11.946;2023-04-08T07:16:48;3.13;;;1.63;;
13439;SDS011;6792;57.698;11.946;2023-04-08T07:19:17;2.93;;;1.43;;
13439;SDS011;6792;57.698;11.946;2023-04-08T07:21:47;1.50;;;1.30;;
13439;SDS011;6792;57.698;11.946;2023-04-08T07:24:18;2.63;;;1.30;;
13439;SDS011;6792;57.698;11.946;2023-04-08T07:26:47;2.20;;;1.50;;
13439;SDS011;6792;57.698;11.946;2023-04-08T07:29:16;2.20;;;1.20;;
13439;SDS011;6792;57.698;11.946;2023-04-08T07:31:49;3.10;;;1.60;;
13439;SDS011;6792;57.698;11.946;2023-04-08T07:34:18;1.40;;;1.30;;
13439;SDS011;6792;57.698;11.946;2023-04-08T07:36:47;2.33;;;1.77;;
13439;SDS011;6792;57.698;11.946;2023-04-08T07:39:16;2.47;;;1.50;;
13439;SDS011;6792;57.698;11.946;2023-04-08T07:41:46;7.67;;;1.90;;
13439;SDS011;6792;57.698;11.946;2023-04-08T07:44:16;2.17;;;1.40;;
13439;SDS011;6792;57.698;11.946;2023-04-08T07:46:46;1.17;;;1.07;;
13439;SDS011;6792;57.698;11.946;2023-04-08T07:49:17;2.67;;;1.43;;
13439;SDS011;6792;57.698;11.946;2023-04-08T07:51:47;2.27;;;1.40;;
13439;SDS011;6792;57.698;11.946;2023-04-08T07:54:18;1.63;;;1.50;;
13439;SDS011;6792;57.698;11.946;2023-04-08T07:56:47;2.00;;;1.50;;
13439;SDS011;6792;57.698;11.946;2023-04-08T07:59:17;2.00;;;1.53;;
13439;SDS011;6792;57.698;11.946;2023-04-08T08:01:46;1.20;;;1.10;;
13439;SDS011;6792;57.698;11.946;2023-04-08T08:04:15;2.50;;;1.60;;
13439;SDS011;6792;57.698;11.946;2023-04-08T08:06:45;3.53;;;1.40;;
13439;SDS011;6792;57.698;11.946;2023-04-08T08:09:25;1.97;;;1.30;;
13439;SDS011;6792;57.698;11.946;2023-04-08T08:11:54;2.10;;;1.30;;
13439;SDS011;6792;57.698;11.946;2023-04-08T08:14:24;7.70;;;1.87;;
13439;SDS011;6792;57.698;11.946;2023-04-08T08:16:54;2.33;;;1.60;;
13439;SDS011;6792;57.698;11.946;2023-04-08T08:19:24;2.10;;;1.50;;
13439;SDS011;6792;57.698;11.946;2023-04-08T08:21:53;2.27;;;1.80;;
13439;SDS011;6792;57.698;11.946;2023-04-08T08:24:23;2.77;;;1.63;;
13439;SDS011;6792;57.698;11.946;2023-04-08T08:26:52;3.37;;;1.50;;
13439;SDS011;6792;57.698;11.946;2023-04-08T08:29:22;2.20;;;1.60;;
13439;SDS011;6792;57.698;11.946;2023-04-08T08:31:51;2.27;;;1.70;;
13439;SDS011;6792;57.698;11.946;2023-04-08T08:34:20;5.07;;;2.23;;
13439;SDS011;6792;57.698;11.946;2023-04-08T08:36:52;1.63;;;1.53;;
13439;SDS011;6792;57.698;11.946;2023-04-08T08:39:21;4.63;;;1.83;;
13439;SDS011;6792;57.698;11.946;2023-04-08T08:41:50;3.63;;;1.57;;
13439;SDS011;6792;57.698;11.946;2023-04-08T08:44:21;3.70;;;2.13;;
13439;SDS011;6792;57.698;11.946;2023-04-08T08:46:51;3.17;;;1.97;;
13439;SDS011;6792;57.698;11.946;2023-04-08T08:49:20;2.83;;;1.90;;
13439;SDS011;6792;57.698;11.946;2023-04-08T08:51:50;3.30;;;1.70;;
13439;SDS011;6792;57.698;11.946;2023-04-08T08:54:21;3.57;;;2.10;;
13439;SDS011;6792;57.698;11.946;2023-04-08T08:56:51;2.30;;;1.60;;
13439;SDS011;6792;57.698;11.946;2023-04-08T08:59:21;4.67;;;2.00;;
13439;SDS011;6792;57.698;11.946;2023-04-08T09:01:50;1.77;;;1.67;;
13439;SDS011;6792;57.698;11.946;2023-04-08T09:04:20;4.53;;;2.57;;
13439;SDS011;6792;57.698;11.946;2023-04-08T09:06:50;3.57;;;1.97;;
13439;SDS011;6792;57.698;11.946;2023-04-08T09:09:40;2.50;;;1.80;;
13439;SDS011;6792;57.698;11.946;2023-04-08T09:12:17;4.20;;;1.60;;
13439;SDS011;6792;57.698;11.946;2023-04-08T09:14:46;3.80;;;1.90;;
13439;SDS011;6792;57.698;11.946;2023-04-08T09:17:30;2.67;;;1.80;;
13439;SDS011;6792;57.698;11.946;2023-04-08T09:20:04;2.60;;;1.70;;
13439;SDS011;6792;57.698;11.946;2023-04-08T09:22:57;3.07;;;1.70;;
13439;SDS011;6792;57.698;11.946;2023-04-08T09:25:27;2.83;;;1.40;;
13439;SDS011;6792;57.698;11.946;2023-04-08T09:27:58;3.43;;;1.43;;
13439;SDS011;6792;57.698;11.946;2023-04-08T09:30:28;1.97;;;1.23;;
13439;SDS011;6792;57.698;11.946;2023-04-08T09:32:59;2.90;;;1.30;;
13439;SDS011;6792;57.698;11.946;2023-04-08T09:35:30;2.37;;;1.50;;
13439;SDS011;6792;57.698;11.946;2023-04-08T09:37:59;2.80;;;1.97;;
13439;SDS011;6792;57.698;11.946;2023-04-08T09:40:29;4.50;;;2.00;;
13439;SDS011;6792;57.698;11.946;2023-04-08T09:43:01;2.63;;;1.70;;
13439;SDS011;6792;57.698;11.946;2023-04-08T09:45:34;2.43;;;1.70;;
13439;SDS011;6792;57.698;11.946;2023-04-08T09:48:11;4.47;;;2.00;;
13439;SDS011;6792;57.698;11.946;2023-04-08T09:50:42;2.77;;;1.83;;
13439;SDS011;6792;57.698;11.946;2023-04-08T09:53:16;2.50;;;1.93;;
13439;SDS011;6792;57.698;11.946;2023-04-08T09:55:49;5.60;;;2.00;;
13439;SDS011;6792;57.698;11.946;2023-04-08T09:58:20;2.67;;;2.10;;
13439;SDS011;6792;57.698;11.946;2023-04-08T10:00:53;2.97;;;1.83;;
13439;SDS011;6792;57.698;11.946;2023-04-08T10:03:25;3.23;;;1.67;;
13439;SDS011;6792;57.698;11.946;2023-04-08T10:05:57;5.00;;;2.43;;
13439;SDS011;6792;57.698;11.946;2023-04-08T10:08:29;2.60;;;1.70;;
13439;SDS011;6792;57.698;11.946;2023-04-08T10:10:58;3.73;;;2.00;;
13439;SDS011;6792;57.698;11.946;2023-04-08T10:13:28;2.73;;;2.10;;
13439;SDS011;6792;57.698;11.946;2023-04-08T10:18:47;2.37;;;1.93;;
13439;SDS011;6792;57.698;11.946;2023-04-08T10:24:18;4.10;;;2.00;;
13439;SDS011;6792;57.698;11.946;2023-04-08T10:26:49;2.50;;;1.90;;
13439;SDS011;6792;57.698;11.946;2023-04-08T10:29:31;2.60;;;1.90;;
13439;SDS011;6792;57.698;11.946;2023-04-08T10:32:01;4.63;;;2.07;;
13439;SDS011;6792;57.698;11.946;2023-04-08T10:34:30;2.63;;;1.93;;
13439;SDS011;6792;57.698;11.946;2023-04-08T10:36:59;6.60;;;2.53;;
13439;SDS011;6792;57.698;11.946;2023-04-08T10:39:32;4.17;;;2.33;;
13439;SDS011;6792;57.698;11.946;2023-04-08T10:42:02;3.97;;;2.57;;
13439;SDS011;6792;57.698;11.946;2023-04-08T10:44:33;4.77;;;2.20;;
13439;SDS011;6792;57.698;11.946;2023-04-08T10:47:03;4.07;;;2.37;;
13439;SDS011;6792;57.698;11.946;2023-04-08T10:49:33;3.23;;;2.20;;
13439;SDS011;6792;57.698;11.946;2023-04-08T10:52:06;5.53;;;2.30;;
13439;SDS011;6792;57.698;11.946;2023-04-08T10:54:36;3.00;;;2.60;;
13439;SDS011;6792;57.698;11.946;2023-04-08T10:57:06;4.23;;;2.63;;
13439;SDS011;6792;57.698;11.946;2023-04-08T10:59:36;4.70;;;2.60;;
13439;SDS011;6792;57.698;11.946;2023-04-08T11:02:05;6.30;;;2.83;;
13439;SDS011;6792;57.698;11.946;2023-04-08T11:04:40;4.67;;;2.80;;
13439;SDS011;6792;57.698;11.946;2023-04-08T11:07:10;3.63;;;1.97;;
13439;SDS011;6792;57.698;11.946;2023-04-08T11:09:41;3.73;;;2.53;;
13439;SDS011;6792;57.698;11.946;2023-04-08T11:12:10;5.23;;;2.37;;
13439;SDS011;6792;57.698;11.946;2023-04-08T11:14:43;3.63;;;2.20;;
13439;SDS011;6792;57.698;11.946;2023-04-08T11:17:17;2.87;;;2.15;;
13439;SDS011;6792;57.698;11.946;2023-04-08T11:19:46;2.47;;;2.03;;
13439;SDS011;6792;57.698;11.946;2023-04-08T11:22:16;5.95;;;2.50;;
13439;SDS011;6792;57.698;11.946;2023-04-08T11:24:47;4.20;;;2.33;;
13439;SDS011;6792;57.698;11.946;2023-04-08T11:27:17;3.75;;;2.47;;
13439;SDS011;6792;57.698;11.946;2023-04-08T11:29:51;4.37;;;2.15;;
13439;SDS011;6792;57.698;11.946;2023-04-08T11:32:25;5.45;;;2.60;;
13439;SDS011;6792;57.698;11.946;2023-04-08T11:34:58;4.17;;;2.65;;
13439;SDS011;6792;57.698;11.946;2023-04-08T11:37:32;3.03;;;2.40;;
13439;SDS011;6792;57.698;11.946;2023-04-08T11:40:07;2.83;;;2.42;;
13439;SDS011;6792;57.698;11.946;2023-04-08T11:42:38;3.95;;;2.72;;
13439;SDS011;6792;57.698;11.946;2023-04-08T11:45:11;4.60;;;2.52;;
13439;SDS011;6792;57.698;11.946;2023-04-08T11:47:42;3.97;;;2.40;;
13439;SDS011;6792;57.698;11.946;2023-04-08T11:50:21;5.35;;;2.75;;
13439;SDS011;6792;57.698;11.946;2023-04-08T11:52:52;3.17;;;2.47;;
13439;SDS011;6792;57.698;11.946;2023-04-08T11:55:23;6.30;;;2.10;;
13439;SDS011;6792;57.698;11.946;2023-04-08T11:57:54;3.08;;;2.72;;
13439;SDS011;6792;57.698;11.946;2023-04-08T12:00:25;4.58;;;2.87;;
13439;SDS011;6792;57.698;11.946;2023-04-08T12:02:55;6.17;;;2.75;;
13439;SDS011;6792;57.698;11.946;2023-04-08T12:05:24;5.47;;;2.60;;
13439;SDS011;6792;57.698;11.946;2023-04-08T12:07:54;6.15;;;2.70;;
13439;SDS011;6792;57.698;11.946;2023-04-08T12:10:24;4.80;;;2.50;;
13439;SDS011;6792;57.698;11.946;2023-04-08T12:12:54;3.37;;;2.62;;
13439;SDS011;6792;57.698;11.946;2023-04-08T12:15:24;3.15;;;2.52;;
13439;SDS011;6792;57.698;11.946;2023-04-08T12:17:55;3.17;;;2.52;;
13439;SDS011;6792;57.698;11.946;2023-04-08T12:20:24;5.05;;;2.50;;
13439;SDS011;6792;57.698;11.946;2023-04-08T12:22:54;5.55;;;2.33;;
13439;SDS011;6792;57.698;11.946;2023-04-08T12:25:23;6.75;;;2.47;;
13439;SDS011;6792;57.698;11.946;2023-04-08T12:27:54;4.08;;;2.45;;
13439;SDS011;6792;57.698;11.946;2023-04-08T12:30:24;4.15;;;2.33;;
13439;SDS011;6792;57.698;11.946;2023-04-08T12:32:53;3.05;;;2.15;;
13439;SDS011;6792;57.698;11.946;2023-04-08T12:35:23;3.42;;;2.20;;
13439;SDS011;6792;57.698;11.946;2023-04-08T12:37:52;3.45;;;2.45;;
13439;SDS011;6792;57.698;11.946;2023-04-08T12:40:22;3.80;;;2.45;;
13439;SDS011;6792;57.698;11.946;2023-04-08T12:42:52;2.55;;;2.30;;
13439;SDS011;6792;57.698;11.946;2023-04-08T12:45:21;3.08;;;2.12;;
13439;SDS011;6792;57.698;11.946;2023-04-08T12:47:51;4.42;;;2.10;;
13439;SDS011;6792;57.698;11.946;2023-04-08T12:50:20;3.55;;;2.55;;
13439;SDS011;6792;57.698;11.946;2023-04-08T12:52:49;4.58;;;2.40;;
13439;SDS011;6792;57.698;11.946;2023-04-08T12:55:19;4.15;;;2.52;;
13439;SDS011;6792;57.698;11.946;2023-04-08T12:57:50;7.97;;;3.15;;
13439;SDS011;6792;57.698;11.946;2023-04-08T13:00:23;4.28;;;2.47;;
13439;SDS011;6792;57.698;11.946;2023-04-08T13:02:52;3.22;;;2.47;;
13439;SDS011;6792;57.698;11.946;2023-04-08T13:05:24;6.20;;;2.35;;
13439;SDS011;6792;57.698;11.946;2023-04-08T13:07:53;3.55;;;2.10;;
13439;SDS011;6792;57.698;11.946;2023-04-08T13:10:25;4.67;;;2.65;;
13439;SDS011;6792;57.698;11.946;2023-04-08T13:12:54;5.83;;;2.55;;
13439;SDS011;6792;57.698;11.946;2023-04-08T13:15:26;4.30;;;2.22;;
13439;SDS011;6792;57.698;11.946;2023-04-08T13:17:58;3.50;;;1.90;;
13439;SDS011;6792;57.698;11.946;2023-04-08T13:20:28;3.65;;;2.30;;
13439;SDS011;6792;57.698;11.946;2023-04-08T13:22:59;4.83;;;2.52;;
13439;SDS011;6792;57.698;11.946;2023-04-08T13:25:28;3.25;;;2.15;;
13439;SDS011;6792;57.698;11.946;2023-04-08T13:27:57;3.33;;;2.50;;
13439;SDS011;6792;57.698;11.946;2023-04-08T13:30:28;4.15;;;2.30;;
13439;SDS011;6792;57.698;11.946;2023-04-08T13:32:57;6.92;;;2.25;;
13439;SDS011;6792;57.698;11.946;2023-04-08T13:35:27;3.35;;;2.30;;
13439;SDS011;6792;57.698;11.946;2023-04-08T13:37:57;6.37;;;2.60;;
13439;SDS011;6792;57.698;11.946;2023-04-08T13:40:26;2.85;;;2.30;;
13439;SDS011;6792;57.698;11.946;2023-04-08T13:42:57;3.47;;;2.17;;
13439;SDS011;6792;57.698;11.946;2023-04-08T13:45:28;3.83;;;2.35;;
13439;SDS011;6792;57.698;11.946;2023-04-08T13:47:57;3.45;;;2.30;;
13439;SDS011;6792;57.698;11.946;2023-04-08T13:50:26;2.80;;;2.00;;
13439;SDS011;6792;57.698;11.946;2023-04-08T13:52:58;7.28;;;2.58;;
13439;SDS011;6792;57.698;11.946;2023-04-08T13:55:28;2.77;;;2.55;;
13439;SDS011;6792;57.698;11.946;2023-04-08T13:57:58;5.78;;;2.42;;
13439;SDS011;6792;57.698;11.946;2023-04-08T14:00:30;3.37;;;2.22;;
13439;SDS011;6792;57.698;11.946;2023-04-08T14:03:01;5.62;;;2.80;;
13439;SDS011;6792;57.698;11.946;2023-04-08T14:05:33;4.97;;;2.52;;
13439;SDS011;6792;57.698;11.946;2023-04-08T14:08:02;2.92;;;2.40;;
13439;SDS011;6792;57.698;11.946;2023-04-08T14:10:33;7.12;;;2.58;;
13439;SDS011;6792;57.698;11.946;2023-04-08T14:13:05;7.30;;;2.50;;
13439;SDS011;6792;57.698;11.946;2023-04-08T14:15:34;3.80;;;2.30;;
13439;SDS011;6792;57.698;11.946;2023-04-08T14:18:05;5.05;;;2.70;;
13439;SDS011;6792;57.698;11.946;2023-04-08T14:20:35;3.55;;;2.67;;
13439;SDS011;6792;57.698;11.946;2023-04-08T14:23:05;3.67;;;2.37;;
13439;SDS011;6792;57.698;11.946;2023-04-08T14:25:34;3.95;;;2.30;;
13439;SDS011;6792;57.698;11.946;2023-04-08T14:28:03;3.25;;;2.60;;
13439;SDS011;6792;57.698;11.946;2023-04-08T14:30:33;3.00;;;2.62;;
13439;SDS011;6792;57.698;11.946;2023-04-08T14:33:03;4.67;;;2.25;;
13439;SDS011;6792;57.698;11.946;2023-04-08T14:35:35;4.85;;;2.92;;
13439;SDS011;6792;57.698;11.946;2023-04-08T14:38:05;2.70;;;2.20;;
13439;SDS011;6792;57.698;11.946;2023-04-08T14:40:37;3.10;;;2.52;;
13439;SDS011;6792;57.698;11.946;2023-04-08T14:43:09;4.78;;;2.70;;
13439;SDS011;6792;57.698;11.946;2023-04-08T14:45:38;4.60;;;3.15;;
13439;SDS011;6792;57.698;11.946;2023-04-08T14:48:11;3.35;;;2.80;;
13439;SDS011;6792;57.698;11.946;2023-04-08T14:50:42;3.98;;;2.50;;
13439;SDS011;6792;57.698;11.946;2023-04-08T14:53:11;2.45;;;2.22;;
13439;SDS011;6792;57.698;11.946;2023-04-08T14:55:41;4.83;;;2.55;;
13439;SDS011;6792;57.698;11.946;2023-04-08T14:58:12;3.00;;;2.70;;
13439;SDS011;6792;57.698;11.946;2023-04-08T15:00:41;3.25;;;2.90;;
13439;SDS011;6792;57.698;11.946;2023-04-08T15:03:12;4.97;;;3.30;;
13439;SDS011;6792;57.698;11.946;2023-04-08T15:05:44;5.33;;;3.10;;
13439;SDS011;6792;57.698;11.946;2023-04-08T15:08:18;6.10;;;2.80;;
13439;SDS011;6792;57.698;11.946;2023-04-08T15:10:48;4.58;;;2.77;;
13439;SDS011;6792;57.698;11.946;2023-04-08T15:13:17;4.62;;;2.50;;